createdAt,value
2022-11-29T00:01:31.202Z,101058.09
2022-11-29T00:03:59.991Z,101059.78
2022-11-29T00:06:30.942Z,101064.13
2022-11-29T00:09:00.795Z,101065.88
2022-11-29T00:11:47.630Z,101072.66
2022-11-29T00:14:17.470Z,101070.09
2022-11-29T00:16:45.471Z,101069.81
2022-11-29T00:19:14.254Z,101067.38
2022-11-29T00:21:43.500Z,101069.03
2022-11-29T00:24:11.284Z,101074.31
2022-11-29T00:26:39.246Z,101082.03
2022-11-29T00:29:07.556Z,101076.75
2022-11-29T00:31:35.673Z,101075.84
2022-11-29T00:34:06.827Z,101078.41
2022-11-29T00:36:35.557Z,101080.03
2022-11-29T00:39:05.824Z,101081.66
2022-11-29T00:41:33.840Z,101076.50
2022-11-29T00:44:01.715Z,101073.19
2022-11-29T00:46:29.627Z,101075.75
2022-11-29T00:48:57.464Z,101082.59
2022-11-29T00:51:25.361Z,101076.41
2022-11-29T00:53:53.170Z,101073.75
2022-11-29T00:56:22.646Z,101071.47
2022-11-29T00:58:50.468Z,101077.09
2022-11-29T01:01:18.575Z,101073.63
2022-11-29T01:03:46.460Z,101073.47
2022-11-29T01:06:16.429Z,101077.03
2022-11-29T01:08:45.634Z,101077.03
2022-11-29T01:11:15.896Z,101074.38
2022-11-29T01:13:45.714Z,101077.63
2022-11-29T01:16:15.247Z,101078.59
2022-11-29T01:18:43.479Z,101081.22
2022-11-29T01:21:13.189Z,101078.56
2022-11-29T01:23:42.112Z,101077.66
2022-11-29T01:26:11.362Z,101082.97
2022-11-29T01:28:40.118Z,101077.69
2022-11-29T01:31:10.834Z,101082.00
2022-11-29T01:33:39.288Z,101075.88
2022-11-29T01:36:08.268Z,101082.97
2022-11-29T01:38:37.017Z,101085.56
2022-11-29T01:41:06.732Z,101082.97
2022-11-29T01:43:35.355Z,101080.25
2022-11-29T01:46:03.228Z,101076.56
2022-11-29T01:48:34.002Z,101068.00
2022-11-29T01:51:02.516Z,101065.41
2022-11-29T01:53:30.506Z,101069.34
2022-11-29T01:56:01.759Z,101076.13
2022-11-29T01:58:29.665Z,101072.09
2022-11-29T02:00:57.533Z,101072.78
2022-11-29T02:03:25.603Z,101065.91
2022-11-29T02:05:55.220Z,101068.59
2022-11-29T02:08:27.347Z,101067.06
2022-11-29T02:11:13.364Z,101067.06
2022-11-29T02:13:52.723Z,101062.66
2022-11-29T02:16:24.872Z,101066.97
2022-11-29T02:19:00.603Z,101066.91
2022-11-29T02:21:34.535Z,101070.78
2022-11-29T02:24:37.334Z,101069.59
2022-11-29T02:27:36.336Z,101067.13
2022-11-29T02:30:20.349Z,101076.47
2022-11-29T02:33:22.393Z,101075.38
2022-11-29T02:36:19.972Z,101069.31
2022-11-29T02:39:19.737Z,101078.59
2022-11-29T02:41:56.978Z,101080.31
2022-11-29T02:44:42.229Z,101076.03
2022-11-29T02:47:17.967Z,101080.44
2022-11-29T02:50:02.120Z,101084.88
2022-11-29T02:52:38.397Z,101090.75
2022-11-29T02:55:09.620Z,101092.28
2022-11-29T02:57:43.243Z,101095.88
2022-11-29T03:00:14.633Z,101091.53
2022-11-29T03:02:49.374Z,101088.00
2022-11-29T03:05:21.549Z,101091.53
2022-11-29T03:07:55.955Z,101090.91
2022-11-29T03:10:32.515Z,101099.38
2022-11-29T03:13:01.139Z,101100.06
2022-11-29T03:15:31.309Z,101103.72
2022-11-29T03:18:08.657Z,101107.41
2022-11-29T03:20:40.416Z,101100.28
2022-11-29T03:23:17.403Z,101099.34
2022-11-29T03:25:47.658Z,101103.78
2022-11-29T03:28:18.000Z,101101.13
2022-11-29T03:30:51.894Z,101105.53
2022-11-29T03:33:25.571Z,101116.09
2022-11-29T03:36:00.530Z,101115.03
2022-11-29T03:38:32.333Z,101111.59
2022-11-29T03:41:07.019Z,101115.94
2022-11-29T03:43:40.632Z,101122.72
2022-11-29T03:46:12.658Z,101111.56
2022-11-29T03:48:44.870Z,101117.59
2022-11-29T03:51:17.066Z,101118.00
2022-11-29T03:53:49.624Z,101123.88
2022-11-29T03:56:29.610Z,101116.06
2022-11-29T03:59:05.342Z,101122.09
2022-11-29T04:01:58.026Z,101122.03
2022-11-29T04:04:59.006Z,101125.63
2022-11-29T04:07:37.410Z,101118.88
2022-11-29T04:10:17.974Z,101122.28
2022-11-29T04:13:24.967Z,101116.16
2022-11-29T04:16:35.388Z,101117.00
2022-11-29T04:19:29.208Z,101120.53
2022-11-29T04:22:23.758Z,101129.06
2022-11-29T04:25:11.305Z,101127.38
2022-11-29T04:27:49.798Z,101119.81
2022-11-29T04:30:21.058Z,101124.03
2022-11-29T04:33:27.214Z,101129.13
2022-11-29T04:36:35.833Z,101125.81
2022-11-29T04:39:22.132Z,101123.25
2022-11-29T04:42:15.968Z,101130.25
2022-11-29T04:45:05.167Z,101126.13
2022-11-29T04:47:52.147Z,101129.53
2022-11-29T04:50:28.576Z,101130.31
2022-11-29T04:53:12.957Z,101138.09
2022-11-29T04:55:46.893Z,101134.84
2022-11-29T04:58:22.037Z,101138.44
2022-11-29T05:00:57.544Z,101138.72
2022-11-29T05:03:35.425Z,101134.44
2022-11-29T05:06:18.118Z,101140.28
2022-11-29T05:08:52.490Z,101130.97
2022-11-29T05:11:28.184Z,101143.00
2022-11-29T05:14:01.352Z,101134.47
2022-11-29T05:16:46.878Z,101149.41
2022-11-29T05:19:30.714Z,101145.50
2022-11-29T05:22:07.748Z,101142.63
2022-11-29T05:24:52.427Z,101147.97
2022-11-29T05:27:28.252Z,101153.25
2022-11-29T05:30:02.391Z,101154.94
2022-11-29T05:32:35.493Z,101160.63
2022-11-29T05:35:38.841Z,101169.91
2022-11-29T05:38:20.523Z,101165.44
2022-11-29T05:40:58.732Z,101172.28
2022-11-29T05:43:41.421Z,101172.94
2022-11-29T05:46:14.502Z,101170.25
2022-11-29T05:48:47.797Z,101177.41
2022-11-29T05:51:22.752Z,101176.59
2022-11-29T05:53:58.566Z,101177.63
2022-11-29T05:56:30.892Z,101186.97
2022-11-29T05:59:01.218Z,101181.69
2022-11-29T06:01:32.777Z,101186.09
2022-11-29T06:04:07.957Z,101186.94
2022-11-29T06:06:44.543Z,101188.84
2022-11-29T06:09:16.220Z,101192.97
2022-11-29T06:11:47.334Z,101201.53
2022-11-29T06:14:26.662Z,101197.19
2022-11-29T06:17:03.779Z,101207.56
2022-11-29T06:19:52.329Z,101207.56
2022-11-29T06:22:33.248Z,101204.25
2022-11-29T06:25:13.207Z,101212.81
2022-11-29T06:27:57.490Z,101217.06
2022-11-29T06:30:28.777Z,101211.81
2022-11-29T06:33:03.109Z,101215.16
2022-11-29T06:35:40.887Z,101213.38
2022-11-29T06:38:13.768Z,101222.13
2022-11-29T06:40:42.128Z,101222.25
2022-11-29T06:43:10.405Z,101221.28
2022-11-29T06:45:38.921Z,101227.25
2022-11-29T06:48:11.140Z,101234.88
2022-11-29T06:50:49.019Z,101239.34
2022-11-29T06:53:23.162Z,101232.41
2022-11-29T06:55:55.499Z,101235.16
2022-11-29T06:58:41.094Z,101232.44
2022-11-29T07:01:20.255Z,101240.06
2022-11-29T07:04:08.930Z,101239.97
2022-11-29T07:06:37.681Z,101246.22
2022-11-29T07:09:14.367Z,101251.50
2022-11-29T07:11:43.463Z,101246.22
2022-11-29T07:14:12.195Z,101254.03
2022-11-29T07:16:45.464Z,101249.75
2022-11-29T07:19:21.838Z,101258.75
2022-11-29T07:21:56.323Z,101255.00
2022-11-29T07:24:45.709Z,101255.84
2022-11-29T07:27:20.139Z,101255.91
2022-11-29T07:30:05.036Z,101262.03
2022-11-29T07:32:45.878Z,101258.00
2022-11-29T07:35:20.746Z,101260.44
2022-11-29T07:37:58.779Z,101261.25
2022-11-29T07:40:37.182Z,101266.19
2022-11-29T07:43:17.732Z,101265.13
2022-11-29T07:45:45.760Z,101270.22
2022-11-29T07:48:14.123Z,101276.19
2022-11-29T07:50:44.320Z,101270.84
2022-11-29T07:53:16.965Z,101278.59
2022-11-29T07:55:45.309Z,101272.50
2022-11-29T07:58:13.756Z,101286.22
2022-11-29T08:00:42.261Z,101282.81
2022-11-29T08:03:10.529Z,101284.56
2022-11-29T08:05:39.013Z,101288.91
2022-11-29T08:08:08.767Z,101283.59
2022-11-29T08:10:36.695Z,101286.09
2022-11-29T08:13:04.725Z,101284.22
2022-11-29T08:15:32.558Z,101280.22
2022-11-29T08:18:00.415Z,101286.41
2022-11-29T08:20:28.187Z,101293.38
2022-11-29T08:22:56.851Z,101295.78
2022-11-29T08:25:26.394Z,101297.19
2022-11-29T08:27:55.096Z,101302.78
2022-11-29T08:30:23.705Z,101295.66
2022-11-29T08:32:52.348Z,101298.78
2022-11-29T08:35:21.623Z,101302.81
2022-11-29T08:37:49.632Z,101300.44
2022-11-29T08:40:17.873Z,101310.34
2022-11-29T08:42:47.090Z,101305.22
2022-11-29T08:45:14.934Z,101297.63
2022-11-29T08:47:42.939Z,101299.50
2022-11-29T08:50:14.433Z,101301.28
2022-11-29T08:53:01.561Z,101301.06
2022-11-29T08:55:32.477Z,101301.00
2022-11-29T08:58:04.512Z,101303.16
2022-11-29T09:00:33.305Z,101305.56
2022-11-29T09:03:16.687Z,101303.72
2022-11-29T09:05:44.912Z,101306.94
2022-11-29T09:08:12.790Z,101312.09
2022-11-29T09:10:40.948Z,101303.88
2022-11-29T09:13:11.038Z,101313.56
2022-11-29T09:15:39.276Z,101315.22
2022-11-29T09:18:07.309Z,101312.59
2022-11-29T09:20:35.377Z,101310.31
2022-11-29T09:23:03.667Z,101320.97
2022-11-29T09:25:31.513Z,101321.91
2022-11-29T09:28:01.863Z,101312.13
2022-11-29T09:30:31.753Z,101313.34
2022-11-29T09:33:02.648Z,101321.53
2022-11-29T09:35:30.653Z,101316.69
2022-11-29T09:37:58.533Z,101314.19
2022-11-29T09:40:32.229Z,101317.91
2022-11-29T09:43:03.853Z,101322.06
2022-11-29T09:45:37.939Z,101327.78
2022-11-29T09:48:20.709Z,101323.69
2022-11-29T09:50:49.770Z,101320.59
2022-11-29T09:53:27.464Z,101316.31
2022-11-29T09:56:04.143Z,101321.81
2022-11-29T09:58:38.071Z,101324.84
2022-11-29T10:01:09.840Z,101323.44
2022-11-29T10:03:41.814Z,101321.53
2022-11-29T10:06:25.039Z,101331.31
2022-11-29T10:08:56.623Z,101328.72
2022-11-29T10:11:28.266Z,101333.84
2022-11-29T10:14:01.117Z,101325.78
2022-11-29T10:16:38.142Z,101330.97
2022-11-29T10:19:11.168Z,101337.09
2022-11-29T10:21:43.098Z,101332.94
2022-11-29T10:24:14.698Z,101337.00
2022-11-29T10:26:43.486Z,101335.94
2022-11-29T10:29:13.675Z,101338.75
2022-11-29T10:31:46.903Z,101345.53
2022-11-29T10:34:16.736Z,101338.75
2022-11-29T10:36:46.552Z,101345.53
2022-11-29T10:39:18.319Z,101345.19
2022-11-29T10:41:46.399Z,101339.78
2022-11-29T10:44:15.678Z,101346.81
2022-11-29T10:46:44.968Z,101343.22
2022-11-29T10:49:15.690Z,101344.16
2022-11-29T10:51:43.558Z,101347.47
2022-11-29T10:54:27.383Z,101343.84
2022-11-29T10:56:56.506Z,101343.63
2022-11-29T10:59:26.193Z,101351.09
2022-11-29T11:01:55.951Z,101348.81
2022-11-29T11:04:29.084Z,101342.69
2022-11-29T11:06:59.915Z,101348.84
2022-11-29T11:09:33.328Z,101348.81
2022-11-29T11:12:02.613Z,101342.75
2022-11-29T11:14:32.026Z,101342.81
2022-11-29T11:17:16.104Z,101344.69
2022-11-29T11:19:44.446Z,101347.44
2022-11-29T11:22:21.451Z,101347.31
2022-11-29T11:24:58.013Z,101352.06
2022-11-29T11:27:33.320Z,101345.09
2022-11-29T11:30:02.222Z,101346.75
2022-11-29T11:32:31.826Z,101347.22
2022-11-29T11:35:01.060Z,101351.22
2022-11-29T11:37:30.077Z,101353.09
2022-11-29T11:39:59.751Z,101352.19
2022-11-29T11:42:39.774Z,101357.78
2022-11-29T11:45:28.739Z,101352.31
2022-11-29T11:47:59.553Z,101360.16
2022-11-29T11:50:30.541Z,101351.78
2022-11-29T11:52:59.452Z,101362.22
2022-11-29T11:55:33.195Z,101360.47
2022-11-29T11:58:09.956Z,101362.16
2022-11-29T12:01:03.442Z,101362.72
2022-11-29T12:03:49.443Z,101357.63
2022-11-29T12:06:42.887Z,101358.00
2022-11-29T12:09:19.327Z,101358.84
2022-11-29T12:11:52.571Z,101366.59
2022-11-29T12:14:26.864Z,101362.25
2022-11-29T12:17:05.835Z,101358.94
2022-11-29T12:19:38.510Z,101367.66
2022-11-29T12:22:10.001Z,101363.09
2022-11-29T12:24:40.376Z,101368.19
2022-11-29T12:27:12.224Z,101359.31
2022-11-29T12:29:40.320Z,101368.88
2022-11-29T12:32:18.293Z,101375.84
2022-11-29T12:34:57.049Z,101380.81
2022-11-29T12:37:28.135Z,101375.50
2022-11-29T12:39:58.618Z,101375.22
2022-11-29T12:42:35.978Z,101385.25
2022-11-29T12:45:17.420Z,101381.44
2022-11-29T12:47:52.087Z,101381.50
2022-11-29T12:50:32.709Z,101382.63
2022-11-29T12:53:11.266Z,101394.38
2022-11-29T12:55:46.334Z,101396.28
2022-11-29T12:58:19.737Z,101397.97
2022-11-29T13:00:53.153Z,101406.84
2022-11-29T13:03:26.119Z,101402.41
2022-11-29T13:06:04.231Z,101399.66
2022-11-29T13:08:52.815Z,101408.16
2022-11-29T13:11:23.810Z,101410.00
2022-11-29T13:14:08.220Z,101414.19
2022-11-29T13:16:49.848Z,101411.84
2022-11-29T13:19:25.045Z,101411.03
2022-11-29T13:21:59.220Z,101412.34
2022-11-29T13:24:31.724Z,101412.97
2022-11-29T13:27:02.649Z,101407.72
2022-11-29T13:29:30.546Z,101408.06
2022-11-29T13:31:59.367Z,101411.31
2022-11-29T13:34:31.687Z,101413.31
2022-11-29T13:37:07.003Z,101416.63
2022-11-29T13:39:47.309Z,101413.91
2022-11-29T13:42:19.896Z,101416.88
2022-11-29T13:44:52.837Z,101423.72
2022-11-29T13:47:21.071Z,101421.22
2022-11-29T13:49:54.807Z,101421.94
2022-11-29T13:52:31.884Z,101418.41
2022-11-29T13:55:23.001Z,101418.09
2022-11-29T14:00:50.736Z,101425.44
2022-11-29T14:03:33.778Z,101432.53
2022-11-29T14:06:13.200Z,101427.28
2022-11-29T14:11:37.689Z,101431.41
2022-11-29T14:14:08.784Z,101434.06
2022-11-29T14:16:39.319Z,101438.41
2022-11-29T14:19:21.211Z,101436.47
2022-11-29T14:22:28.690Z,101441.28
2022-11-29T14:25:05.419Z,101444.78
2022-11-29T14:28:03.120Z,101446.75
2022-11-29T14:30:51.939Z,101443.38
2022-11-29T14:33:30.373Z,101451.09
2022-11-29T14:36:05.508Z,101449.25
2022-11-29T14:38:39.797Z,101444.25
2022-11-29T14:41:22.272Z,101447.03
2022-11-29T14:43:50.278Z,101452.47
2022-11-29T14:46:29.476Z,101455.75
2022-11-29T14:49:02.254Z,101454.97
2022-11-29T14:51:32.720Z,101466.22
2022-11-29T14:54:07.452Z,101460.09
2022-11-29T14:56:42.504Z,101461.19
2022-11-29T14:59:43.624Z,101462.03
2022-11-29T15:02:25.938Z,101462.81
2022-11-29T15:04:56.319Z,101470.66
2022-11-29T15:07:27.636Z,101467.34
2022-11-29T15:09:57.455Z,101464.81
2022-11-29T15:12:28.875Z,101474.28
2022-11-29T15:15:07.804Z,101474.13
2022-11-29T15:17:43.221Z,101475.88
2022-11-29T15:20:31.978Z,101473.38
2022-11-29T15:23:01.702Z,101469.09
2022-11-29T15:25:31.777Z,101474.53
2022-11-29T15:28:01.990Z,101473.63
2022-11-29T15:30:32.927Z,101478.81
2022-11-29T15:33:02.099Z,101481.56
2022-11-29T15:35:30.301Z,101483.91
2022-11-29T15:37:59.342Z,101491.19
2022-11-29T15:40:34.474Z,101487.31
2022-11-29T15:43:15.093Z,101493.22
2022-11-29T15:45:47.899Z,101486.38
2022-11-29T15:48:22.051Z,101491.56
2022-11-29T15:50:54.752Z,101488.09
2022-11-29T15:53:26.405Z,101498.38
2022-11-29T15:55:56.018Z,101496.66
2022-11-29T15:58:26.981Z,101496.69
2022-11-29T16:00:56.010Z,101510.84
2022-11-29T16:03:26.240Z,101515.75
2022-11-29T16:06:01.341Z,101508.00
2022-11-29T16:08:31.841Z,101512.19
2022-11-29T16:11:00.419Z,101516.66
2022-11-29T16:13:37.024Z,101520.09
2022-11-29T16:16:08.475Z,101517.50
2022-11-29T16:18:36.823Z,101521.06
2022-11-29T16:21:07.041Z,101523.59
2022-11-29T16:23:35.608Z,101535.50
2022-11-29T16:26:13.617Z,101528.97
2022-11-29T16:28:44.844Z,101533.41
2022-11-29T16:31:18.135Z,101539.38
2022-11-29T16:33:47.404Z,101533.47
2022-11-29T16:36:17.319Z,101533.75
2022-11-29T16:38:46.999Z,101543.09
2022-11-29T16:41:24.402Z,101542.34
2022-11-29T16:43:56.220Z,101543.22
2022-11-29T16:46:32.690Z,101537.91
2022-11-29T16:49:02.697Z,101539.94
2022-11-29T16:51:39.796Z,101538.03
2022-11-29T16:54:22.293Z,101548.16
2022-11-29T16:56:50.772Z,101544.72
2022-11-29T16:59:26.753Z,101551.69
2022-11-29T17:01:55.884Z,101555.88
2022-11-29T17:04:24.872Z,101548.44
2022-11-29T17:06:53.858Z,101556.38
2022-11-29T17:09:25.158Z,101552.09
2022-11-29T17:11:53.699Z,101552.81
2022-11-29T17:14:23.104Z,101552.78
2022-11-29T17:16:51.962Z,101554.63
2022-11-29T17:19:23.599Z,101558.00
2022-11-29T17:21:52.206Z,101560.44
2022-11-29T17:24:22.176Z,101559.56
2022-11-29T17:26:50.725Z,101564.22
2022-11-29T17:29:19.286Z,101556.16
2022-11-29T17:31:50.407Z,101563.88
2022-11-29T17:34:18.517Z,101562.22
2022-11-29T17:36:46.424Z,101553.72
2022-11-29T17:39:15.620Z,101557.78
2022-11-29T17:41:43.557Z,101563.81
2022-11-29T17:44:11.452Z,101567.34
2022-11-29T17:46:39.257Z,101563.00
2022-11-29T17:49:09.949Z,101570.69
2022-11-29T17:51:55.457Z,101565.56
2022-11-29T17:54:24.125Z,101569.09
2022-11-29T17:56:52.101Z,101575.19
2022-11-29T17:59:20.582Z,101578.06
2022-11-29T18:01:48.677Z,101580.63
2022-11-29T18:04:17.978Z,101573.78
2022-11-29T18:06:49.679Z,101576.19
2022-11-29T18:09:18.540Z,101577.16
2022-11-29T18:11:49.371Z,101579.94
2022-11-29T18:14:20.018Z,101587.13
2022-11-29T18:16:48.204Z,101584.69
2022-11-29T18:19:19.058Z,101588.59
2022-11-29T18:21:47.115Z,101588.75
2022-11-29T18:24:15.373Z,101587.97
2022-11-29T18:26:43.534Z,101591.41
2022-11-29T18:29:11.607Z,101595.56
2022-11-29T18:31:41.536Z,101592.28
2022-11-29T18:34:10.682Z,101599.78
2022-11-29T18:36:42.751Z,101594.84
2022-11-29T18:39:13.893Z,101598.09
2022-11-29T18:41:42.742Z,101597.25
2022-11-29T18:44:12.686Z,101600.81
2022-11-29T18:46:42.940Z,101608.47
2022-11-29T18:49:12.424Z,101606.81
2022-11-29T18:51:42.792Z,101603.38
2022-11-29T18:54:10.767Z,101608.78
2022-11-29T18:56:39.494Z,101607.94
2022-11-29T18:59:10.093Z,101605.28
2022-11-29T19:01:41.060Z,101605.19
2022-11-29T19:04:10.584Z,101602.41
2022-11-29T19:06:39.886Z,101599.09
2022-11-29T19:09:13.807Z,101602.66
2022-11-29T19:11:42.316Z,101607.78
2022-11-29T19:14:12.457Z,101608.63
2022-11-29T19:16:42.564Z,101606.88
2022-11-29T19:19:10.646Z,101605.97
2022-11-29T19:21:39.613Z,101609.47
2022-11-29T19:24:14.691Z,101606.75
2022-11-29T19:26:44.847Z,101611.09
2022-11-29T19:29:12.919Z,101613.78
2022-11-29T19:31:40.755Z,101613.78
2022-11-29T19:34:08.911Z,101621.06
2022-11-29T19:36:42.475Z,101613.22
2022-11-29T19:39:13.103Z,101620.03
2022-11-29T19:41:41.162Z,101611.22
2022-11-29T19:44:09.565Z,101618.84
2022-11-29T19:46:39.080Z,101610.16
2022-11-29T19:49:07.933Z,101612.84
2022-11-29T19:51:36.324Z,101619.03
2022-11-29T19:54:06.348Z,101620.56
2022-11-29T19:56:35.643Z,101617.28
2022-11-29T19:59:03.557Z,101622.53
2022-11-29T20:01:40.186Z,101616.38
2022-11-29T20:04:09.571Z,101623.47
2022-11-29T20:06:37.630Z,101621.50
2022-11-29T20:09:06.352Z,101625.00
2022-11-29T20:11:35.922Z,101625.00
2022-11-29T20:14:05.959Z,101632.72
2022-11-29T20:16:34.162Z,101631.88
2022-11-29T20:19:02.215Z,101630.19
2022-11-29T20:21:32.030Z,101636.25
2022-11-29T20:24:02.426Z,101638.91
2022-11-29T20:26:31.729Z,101639.97
2022-11-29T20:29:01.983Z,101633.66
2022-11-29T20:31:30.854Z,101631.81
2022-11-29T20:33:59.206Z,101638.97
2022-11-29T20:36:34.615Z,101633.69
2022-11-29T20:39:08.854Z,101633.72
2022-11-29T20:41:41.380Z,101641.44
2022-11-29T20:44:11.870Z,101641.59
2022-11-29T20:46:40.096Z,101644.03
2022-11-29T20:49:09.684Z,101645.72
2022-11-29T20:51:41.220Z,101645.81
2022-11-29T20:54:10.874Z,101650.91
2022-11-29T20:56:38.655Z,101652.69
2022-11-29T20:59:06.563Z,101657.94
2022-11-29T21:01:35.806Z,101651.41
2022-11-29T21:04:03.715Z,101656.28
2022-11-29T21:06:34.311Z,101658.03
2022-11-29T21:09:02.138Z,101659.63
2022-11-29T21:11:30.174Z,101661.38
2022-11-29T21:13:58.408Z,101664.63
2022-11-29T21:16:28.981Z,101658.16
2022-11-29T21:19:00.991Z,101659.69
2022-11-29T21:21:33.430Z,101660.78
2022-11-29T21:24:04.663Z,101666.69
2022-11-29T21:26:40.169Z,101664.84
2022-11-29T21:29:15.680Z,101673.03
2022-11-29T21:31:43.951Z,101671.88
2022-11-29T21:34:13.392Z,101670.25
2022-11-29T21:36:41.380Z,101671.94
2022-11-29T21:39:12.651Z,101672.91
2022-11-29T21:41:40.539Z,101675.50
2022-11-29T21:44:08.802Z,101676.28
2022-11-29T21:46:37.124Z,101676.66
2022-11-29T21:49:05.492Z,101670.94
2022-11-29T21:51:34.870Z,101680.22
2022-11-29T21:54:03.025Z,101676.72
2022-11-29T21:56:30.827Z,101680.56
2022-11-29T21:58:58.653Z,101690.72
2022-11-29T22:01:30.127Z,101681.16
2022-11-29T22:03:58.208Z,101678.22
2022-11-29T22:06:27.655Z,101676.63
2022-11-29T22:08:57.056Z,101671.56
2022-11-29T22:11:31.764Z,101672.84
2022-11-29T22:14:15.969Z,101682.78
2022-11-29T22:16:48.247Z,101680.94
2022-11-29T22:19:17.871Z,101688.28
2022-11-29T22:21:46.779Z,101692.03
2022-11-29T22:24:17.210Z,101693.09
2022-11-29T22:26:45.086Z,101694.22
2022-11-29T22:29:14.129Z,101688.13
2022-11-29T22:31:42.478Z,101689.16
2022-11-29T22:34:10.789Z,101690.00
2022-11-29T22:36:39.530Z,101696.03
2022-11-29T22:39:08.730Z,101694.41
2022-11-29T22:41:39.012Z,101701.31
2022-11-29T22:44:07.236Z,101696.25
2022-11-29T22:46:40.464Z,101694.44
2022-11-29T22:49:08.648Z,101704.84
2022-11-29T22:51:38.074Z,101703.22
2022-11-29T22:54:07.476Z,101711.91
2022-11-29T22:56:38.238Z,101709.31
2022-11-29T22:59:06.695Z,101704.25
2022-11-29T23:01:36.041Z,101706.66
2022-11-29T23:04:06.012Z,101707.66
2022-11-29T23:06:35.244Z,101711.06
2022-11-29T23:09:06.422Z,101705.03
2022-11-29T23:11:34.695Z,101709.59
2022-11-29T23:14:03.897Z,101705.16
2022-11-29T23:16:32.749Z,101700.78
2022-11-29T23:19:01.297Z,101706.00
2022-11-29T23:21:31.165Z,101706.91
2022-11-29T23:24:00.903Z,101702.53
2022-11-29T23:26:30.231Z,101705.94
2022-11-29T23:28:58.258Z,101707.69
2022-11-29T23:31:27.835Z,101705.22
2022-11-29T23:33:55.827Z,101708.53
2022-11-29T23:36:23.832Z,101710.44
2022-11-29T23:38:51.838Z,101708.75
2022-11-29T23:41:19.709Z,101705.09
2022-11-29T23:43:47.609Z,101708.53
2022-11-29T23:46:17.316Z,101703.50
2022-11-29T23:48:47.025Z,101704.28
2022-11-29T23:51:15.026Z,101705.28
2022-11-29T23:53:43.284Z,101699.56
2022-11-29T23:56:13.866Z,101709.44
2022-11-29T23:58:41.888Z,101704.13
